Woodford, Virginia
Current Conditions -  °F | °C
As of 4:35 PM on Wednesday 26 Nov 2014 (Local Time) from KEZF Reporting Station
Light Rain Light Rain  
Wind Chill: 31°   Ceiling: 1400
Heat Index: 37°   Visibility: 7mi
Dew Point: 37°   Wind: 7mph
Humidity: 100%   Direction: 330°NNW
Pressure: 29.96"   Gusts: NA
Location:  38.11°N, 77.44°W
Report Text: KEZF 262135Z AUTO 33006KT 7SM -RA SCT009 OVC014 03/03 A2996 RMK AO2 P0001 T00270027
Loading
Personal Weather Stations






























Interactive Weather Map New forecast layout! Learn more

10-Day Weather Forecast

Advertisements
Track Severe Weather on mobile